Map

Track Data

SID SEASON NUMBER BASIN SUBBASIN NAME ISO_TIME NATURE LAT LON WMO_WIND WMO_PRES WMO_AGENCY TRACK_TYPE DIST2LAND LANDFALL IFLAG USA_AGENCY USA_ATCF_ID USA_LAT USA_LON USA_RECORD USA_STATUS USA_WIND USA_PRES USA_SSHS USA_R34_NE USA_R34_SE USA_R34_SW USA_R34_NW USA_R50_NE USA_R50_SE USA_R50_SW USA_R50_NW USA_R64_NE USA_R64_SE USA_R64_SW USA_R64_NW USA_POCI USA_ROCI USA_RMW USA_EYE TOKYO_LAT TOKYO_LON TOKYO_GRADE TOKYO_WIND TOKYO_PRES TOKYO_R50_DIR TOKYO_R50_LONG TOKYO_R50_SHORT TOKYO_R30_DIR TOKYO_R30_LONG TOKYO_R30_SHORT TOKYO_LAND CMA_LAT CMA_LON CMA_CAT CMA_WIND CMA_PRES HKO_LAT HKO_LON HKO_CAT HKO_WIND HKO_PRES NEWDELHI_LAT NEWDELHI_LON NEWDELHI_GRADE NEWDELHI_WIND NEWDELHI_PRES NEWDELHI_CI NEWDELHI_DP NEWDELHI_POCI REUNION_LAT REUNION_LON REUNION_TYPE REUNION_WIND REUNION_PRES REUNION_TNUM REUNION_CI REUNION_RMW REUNION_R34_NE REUNION_R34_SE REUNION_R34_SW REUNION_R34_NW REUNION_R50_NE REUNION_R50_SE REUNION_R50_SW REUNION_R50_NW REUNION_R64_NE REUNION_R64_SE REUNION_R64_SW REUNION_R64_NW BOM_LAT BOM_LON BOM_TYPE BOM_WIND BOM_PRES BOM_TNUM BOM_CI BOM_RMW BOM_R34_NE BOM_R34_SE BOM_R34_SW BOM_R34_NW BOM_R50_NE BOM_R50_SE BOM_R50_SW BOM_R50_NW BOM_R64_NE BOM_R64_SE BOM_R64_SW BOM_R64_NW BOM_ROCI BOM_POCI BOM_EYE BOM_POS_METHOD BOM_PRES_METHOD NADI_LAT NADI_LON NADI_CAT NADI_WIND NADI_PRES WELLINGTON_LAT WELLINGTON_LON WELLINGTON_WIND WELLINGTON_PRES DS824_LAT DS824_LON DS824_STAGE DS824_WIND DS824_PRES TD9636_LAT TD9636_LON TD9636_STAGE TD9636_WIND TD9636_PRES TD9635_LAT TD9635_LON TD9635_WIND TD9635_PRES TD9635_ROCI NEUMANN_LAT NEUMANN_LON NEUMANN_CLASS NEUMANN_WIND NEUMANN_PRES MLC_LAT MLC_LON MLC_CLASS MLC_WIND MLC_PRES USA_GUST BOM_GUST BOM_GUST_PER REUNION_GUST REUNION_GUST_PER USA_SEAHGT USA_SEARAD_NE USA_SEARAD_SE USA_SEARAD_SW USA_SEARAD_NW STORM_SPEED STORM_DIR
1946042S21398 1946 13 SI MM NOT_NAMED 1946-02-11 06:00:00 NR -20.9000 37.8000 reunion spur-split 270 270 _____O________ -1 -20.9000 37.8000 99 9.90000 2 126
1946042S21398 1946 13 SI MM NOT_NAMED 1946-02-11 09:00:00 NR -20.9571 37.8807 spur-split 277 277 _____P________ -1 -20.9571 37.8807 99 2 127
1946042S21398 1946 13 SI MM NOT_NAMED 1946-02-11 12:00:00 NR -21.0170 37.9644 spur-split 287 285 _____P________ -1 -21.0170 37.9644 99 2 128
1946042S21398 1946 13 SI MM NOT_NAMED 1946-02-11 15:00:00 NR -21.0828 38.0541 spur-split 295 290 _____P________ -1 -21.0828 38.0541 99 2 128
1946042S21398 1946 13 SI MM NOT_NAMED 1946-02-11 18:00:00 NR -21.1573 38.1530 spur-split 300 300 _____P________ -1 -21.1573 38.1530 99 3 130
1946042S21398 1946 13 SI MM NOT_NAMED 1946-02-11 21:00:00 NR -21.2433 38.2639 spur-split 310 306 _____P________ -1 -21.2433 38.2639 99 3 130
1946042S21398 1946 13 SI MM NOT_NAMED 1946-02-12 00:00:00 NR -21.3439 38.3900 spur-split 315 312 _____P________ -1 -21.3439 38.3900 99 3 131
1946042S21398 1946 13 SI MM NOT_NAMED 1946-02-12 03:00:00 NR -21.4618 38.5343 spur-split 319 319 _____P________ -1 -21.4618 38.5343 99 4 132
1946042S21398 1946 13 SI MM NOT_NAMED 1946-02-12 06:00:00 NR -21.6000 38.7000 reunion spur-split 336 336 _____O________ -1 -21.6000 38.7000 99 9.90000 4 132
1946042S21398 1946 13 SI MM NOT_NAMED 1946-02-12 09:00:00 NR -21.7603 38.8893 spur-split 353 353 _____P________ -1 -21.7603 38.8893 99 5 133
1946042S21398 1946 13 SI MM NOT_NAMED 1946-02-12 12:00:00 NR -21.9410 39.1007 spur-split 372 371 _____P________ -1 -21.9410 39.1007 99 6 133
1946042S21398 1946 13 SI MM NOT_NAMED 1946-02-12 15:00:00 NR -22.1393 39.3319 spur-split 390 370 _____P________ -1 -22.1393 39.3319 99 6 133
1946042S21398 1946 13 SI MM NOT_NAMED 1946-02-12 18:00:00 NR -22.3525 39.5804 spur-split 370 350 _____P________ -1 -22.3525 39.5804 99 6 133
1946042S21398 1946 13 SI MM NOT_NAMED 1946-02-12 21:00:00 NR -22.5778 39.8439 spur-split 350 323 _____P________ -1 -22.5778 39.8439 99 7 133
1946042S21398 1946 13 SI MM NOT_NAMED 1946-02-13 00:00:00 NR -22.8126 40.1200 spur-split 323 297 _____P________ -1 -22.8126 40.1200 99 7 133
1946042S21398 1946 13 SI MM NOT_NAMED 1946-02-13 03:00:00 NR -23.0542 40.4062 spur-split 300 279 _____P________ -1 -23.0542 40.4062 99 7 132
1946042S21398 1946 13 SI MM NOT_NAMED 1946-02-13 06:00:00 NR -23.3000 40.7000 reunion spur-split 279 257 _____O________ -1 -23.3000 40.7000 99 9.90000 7 132
1946042S21398 1946 13 SI MM NOT_NAMED 1946-02-13 09:00:00 NR -23.5557 41.0092 spur-split 260 234 _____P________ -1 -23.5557 41.0092 99 8 132
1946042S21398 1946 13 SI MM NOT_NAMED 1946-02-13 12:00:00 NR -23.8200 41.3316 spur-split 234 206 _____P________ -1 -23.8200 41.3316 99 8 132
1946042S21398 1946 13 SI MM NOT_NAMED 1946-02-13 15:00:00 NR -24.0879 41.6612 spur-split 198 173 _____P________ -1 -24.0879 41.6612 99 8 132
1946042S21398 1946 13 SI MM NOT_NAMED 1946-02-13 18:00:00 NR -24.3540 41.9918 spur-split 175 151 _____P________ -1 -24.3540 41.9918 99 8 131
1946042S21398 1946 13 SI MM NOT_NAMED 1946-02-13 21:00:00 NR -24.6133 42.3174 spur-split 151 123 _____P________ -1 -24.6133 42.3174 99 8 131
1946042S21398 1946 13 SI MM NOT_NAMED 1946-02-14 00:00:00 NR -24.8608 42.6315 spur-split 125 101 _____P________ -1 -24.8608 42.6315 99 7 131
1946042S21398 1946 13 SI MM NOT_NAMED 1946-02-14 03:00:00 NR -25.0913 42.9279 spur-split 106 87 _____P________ -1 -25.0913 42.9279 99 7 131
1946042S21398 1946 13 SI MM NOT_NAMED 1946-02-14 06:00:00 NR -25.3000 43.2000 reunion spur-split 87 75 _____O________ -1 -25.3000 43.2000 99 9.90000 6 130
1946042S21398 1946 13 SI MM NOT_NAMED 1946-02-14 09:00:00 NR -25.4686 43.4260 spur-split 82 75 _____P________ -1 -25.4686 43.4260 99 5 129
1946042S21398 1946 13 SI MM NOT_NAMED 1946-02-14 12:00:00 NR -25.6162 43.6279 spur-split 78 73 _____P________ -1 -25.6162 43.6279 99 4 129
1946042S21398 1946 13 SI MM NOT_NAMED 1946-02-14 15:00:00 NR -25.7470 43.8106 spur-split 74 68 _____P________ -1 -25.7470 43.8106 99 4 128
1946042S21398 1946 13 SI MM NOT_NAMED 1946-02-14 18:00:00 NR -25.8654 43.9787 spur-split 78 73 _____P________ -1 -25.8654 43.9787 99 4 128
1946042S21398 1946 13 SI MM NOT_NAMED 1946-02-14 21:00:00 NR -25.9757 44.1368 spur-split 83 80 _____P________ -1 -25.9757 44.1368 99 4 128
1946042S21398 1946 13 SI MM NOT_NAMED 1946-02-15 00:00:00 NR -26.0821 44.2899 spur-split 89 89 _____P________ -1 -26.0821 44.2899 99 3 128
1946042S21398 1946 13 SI MM NOT_NAMED 1946-02-15 03:00:00 NR -26.1888 44.4426 spur-split 98 92 _____P________ -1 -26.1888 44.4426 99 4 128
1946042S21398 1946 13 SI MM NOT_NAMED 1946-02-15 06:00:00 NR -26.3000 44.6000 reunion spur-split 97 92 _____O________ -1 -26.3000 44.6000 99 9.90000 4 129
1946042S21398 1946 13 SI MM NOT_NAMED 1946-02-15 09:00:00 NR -26.4327 44.7830 spur-split 97 97 _____P________ -1 -26.4327 44.7830 99 4 129
1946042S21398 1946 13 SI MM NOT_NAMED 1946-02-15 12:00:00 NR -26.5676 44.9682 spur-split 113 112 _____P________ -1 -26.5676 44.9682 99 4 129
1946042S21398 1946 13 SI MM NOT_NAMED 1946-02-15 15:00:00 NR -26.7042 45.1549 spur-split 122 122 _____P________ -1 -26.7042 45.1549 99 4 129
1946042S21398 1946 13 SI MM NOT_NAMED 1946-02-15 18:00:00 NR -26.8422 45.3430 spur-split 134 134 _____P________ -1 -26.8422 45.3430 99 4 130
1946042S21398 1946 13 SI MM NOT_NAMED 1946-02-15 21:00:00 NR -26.9812 45.5319 spur-split 156 156 _____P________ -1 -26.9812 45.5319 99 4 129
1946042S21398 1946 13 SI MM NOT_NAMED 1946-02-16 00:00:00 NR -27.1207 45.7213 spur-split 168 168 _____P________ -1 -27.1207 45.7213 99 4 130
1946042S21398 1946 13 SI MM NOT_NAMED 1946-02-16 03:00:00 NR -27.2605 45.9108 spur-split 194 194 _____P________ -1 -27.2605 45.9108 99 4 130
1946042S21398 1946 13 SI MM NOT_NAMED 1946-02-16 06:00:00 NR -27.4000 46.1000 reunion spur-split 209 209 _____O________ -1 -27.4000 46.1000 99 9.90000 4 130
1946042S21398 1946 13 SI MM NOT_NAMED 1946-02-16 09:00:00 NR -27.5391 46.2885 spur-split 226 226 _____P________ -1 -27.5391 46.2885 99 4 130
1946042S21398 1946 13 SI MM NOT_NAMED 1946-02-16 12:00:00 NR -27.6776 46.4764 spur-split 254 254 _____P________ -1 -27.6776 46.4764 99 4 130
1946042S21398 1946 13 SI MM NOT_NAMED 1946-02-16 15:00:00 NR -27.8156 46.6639 spur-split 273 273 _____P________ -1 -27.8156 46.6639 99 4 130
1946042S21398 1946 13 SI MM NOT_NAMED 1946-02-16 18:00:00 NR -27.9532 46.8511 spur-split 301 301 _____P________ -1 -27.9532 46.8511 99 4 130
1946042S21398 1946 13 SI MM NOT_NAMED 1946-02-16 21:00:00 NR -28.0904 47.0381 spur-split 316 316 _____P________ -1 -28.0904 47.0381 99 4 130
1946042S21398 1946 13 SI MM NOT_NAMED 1946-02-17 00:00:00 NR -28.2273 47.2252 spur-split 335 335 _____P________ -1 -28.2273 47.2252 99 4 130
1946042S21398 1946 13 SI MM NOT_NAMED 1946-02-17 03:00:00 NR -28.3638 47.4124 spur-split 362 362 _____P________ -1 -28.3638 47.4124 99 4 130
1946042S21398 1946 13 SI MM NOT_NAMED 1946-02-17 06:00:00 NR -28.5000 47.6000 reunion spur-split 376 _____O________ -1 -28.5000 47.6000 99 9.90000 4 130

About IBTrACS Database

This database is a web-friendly format of International Best Track Archive for Climate Stewardship (IBTrACS), a global best track data archive curated by NOAA dating back to 1842.

Updated: 2021-12-03